createdAt,value
2018-06-05T00:01:55.521Z,17.10
2018-06-05T00:04:24.468Z,17.10
2018-06-05T00:06:53.498Z,17.10
2018-06-05T00:09:22.615Z,17.10
2018-06-05T00:11:51.628Z,17.00
2018-06-05T00:14:20.638Z,17.00
2018-06-05T00:16:49.607Z,16.90
2018-06-05T00:19:18.988Z,16.90
2018-06-05T00:21:47.934Z,16.80
2018-06-05T00:24:16.843Z,16.80
2018-06-05T00:26:45.744Z,16.80
2018-06-05T00:29:14.683Z,16.80
2018-06-05T00:31:43.593Z,16.80
2018-06-05T00:34:12.497Z,16.80
2018-06-05T00:36:41.322Z,16.80
2018-06-05T00:41:39.023Z,16.80
2018-06-05T00:44:08.017Z,16.80
2018-06-05T00:46:37.069Z,16.70
2018-06-05T00:49:06.871Z,16.80
2018-06-05T00:51:47.021Z,16.70
2018-06-05T00:54:16.113Z,16.70
2018-06-05T00:56:45.478Z,16.70
2018-06-05T00:59:14.712Z,16.70
2018-06-05T01:01:50.404Z,16.70
2018-06-05T01:04:19.584Z,16.60
2018-06-05T01:06:48.646Z,16.60
2018-06-05T01:09:17.923Z,16.60
2018-06-05T01:11:47.313Z,16.50
2018-06-05T01:14:16.573Z,16.50
2018-06-05T01:16:46.480Z,16.50
2018-06-05T01:19:15.759Z,16.50
2018-06-05T01:21:44.819Z,16.50
2018-06-05T01:24:14.036Z,16.40
2018-06-05T01:26:43.838Z,16.40
2018-06-05T01:29:13.114Z,16.40
2018-06-05T01:31:42.145Z,16.40
2018-06-05T01:34:11.312Z,16.40
2018-06-05T01:36:40.339Z,16.40
2018-06-05T01:39:10.403Z,16.40
2018-06-05T01:41:39.678Z,16.50
2018-06-05T01:44:08.871Z,16.40
2018-06-05T01:46:37.992Z,16.50
2018-06-05T01:49:07.201Z,16.50
2018-06-05T01:51:36.864Z,16.50
2018-06-05T01:54:06.116Z,16.40
2018-06-05T01:56:35.202Z,16.40
2018-06-05T01:59:04.259Z,16.40
2018-06-05T02:01:33.499Z,16.30
2018-06-05T02:04:02.757Z,16.30
2018-06-05T02:06:32.029Z,16.30
2018-06-05T02:09:01.276Z,16.20
2018-06-05T02:11:30.445Z,16.20
2018-06-05T02:13:59.633Z,16.20
2018-06-05T02:16:28.861Z,16.20
2018-06-05T02:18:59.107Z,16.10
2018-06-05T02:21:28.397Z,16.10
2018-06-05T02:23:57.578Z,16.10
2018-06-05T02:26:27.740Z,16.10
2018-06-05T02:28:56.910Z,16.10
2018-06-05T02:31:26.079Z,16.10
2018-06-05T02:33:56.322Z,16.10
2018-06-05T02:36:25.603Z,16.10
2018-06-05T02:38:54.847Z,16.10
2018-06-05T02:41:24.670Z,16.10
2018-06-05T02:43:54.044Z,16.10
2018-06-05T02:46:23.104Z,16.10
2018-06-05T02:48:52.375Z,16.00
2018-06-05T02:51:21.773Z,16.00
2018-06-05T02:53:50.937Z,16.00
2018-06-05T02:56:20.039Z,16.00
2018-06-05T02:58:49.199Z,16.10
2018-06-05T03:01:19.115Z,16.10
2018-06-05T03:03:48.035Z,16.00
2018-06-05T03:06:17.204Z,16.00
2018-06-05T03:08:46.393Z,16.00
2018-06-05T03:11:16.408Z,16.00
2018-06-05T03:13:45.523Z,16.00
2018-06-05T03:16:14.297Z,16.00
2018-06-05T03:18:44.227Z,16.00
2018-06-05T03:21:13.336Z,16.00
2018-06-05T03:23:42.107Z,16.00
2018-06-05T03:26:11.839Z,16.00
2018-06-05T03:28:40.958Z,16.00
2018-06-05T03:31:09.514Z,15.90
2018-06-05T03:33:38.045Z,15.90
2018-06-05T03:38:34.854Z,15.90
2018-06-05T03:41:03.557Z,15.90
2018-06-05T03:43:32.107Z,15.90
2018-06-05T03:46:00.642Z,15.90
2018-06-05T03:48:29.952Z,15.80
2018-06-05T03:50:58.533Z,15.80
2018-06-05T03:53:27.104Z,15.90
2018-06-05T03:55:55.669Z,15.90
2018-06-05T03:58:24.275Z,15.80
2018-06-05T04:00:52.837Z,15.80
2018-06-05T04:03:21.428Z,15.80
2018-06-05T04:05:50.097Z,15.80
2018-06-05T04:08:18.697Z,15.80
2018-06-05T04:10:47.278Z,15.80
2018-06-05T04:13:15.886Z,15.80
2018-06-05T04:15:44.434Z,15.80
2018-06-05T04:18:13.015Z,15.90
2018-06-05T04:20:41.650Z,15.90
2018-06-05T04:23:10.194Z,15.90
2018-06-05T04:25:38.859Z,15.90
2018-06-05T04:28:07.418Z,15.80
2018-06-05T04:30:36.006Z,15.90
2018-06-05T04:33:04.576Z,15.80
2018-06-05T04:35:33.091Z,15.90
2018-06-05T04:38:01.676Z,15.80
2018-06-05T04:40:30.297Z,15.80
2018-06-05T04:42:58.932Z,15.80
2018-06-05T04:45:27.570Z,15.80
2018-06-05T04:47:56.138Z,15.80
2018-06-05T04:50:24.730Z,15.80
2018-06-05T04:52:53.278Z,15.80
2018-06-05T04:55:22.592Z,15.80
2018-06-05T04:57:51.175Z,15.70
2018-06-05T05:00:19.773Z,15.70
2018-06-05T05:02:49.102Z,15.80
2018-06-05T05:05:17.614Z,15.90
2018-06-05T05:07:46.167Z,15.90
2018-06-05T05:10:15.409Z,15.90
2018-06-05T05:12:44.090Z,15.90
2018-06-05T05:15:12.642Z,15.90
2018-06-05T05:17:41.261Z,15.90
2018-06-05T05:20:09.898Z,15.90
2018-06-05T05:22:39.194Z,15.90
2018-06-05T05:25:07.744Z,16.00
2018-06-05T05:27:36.366Z,16.00
2018-06-05T05:30:05.031Z,16.00
2018-06-05T05:32:33.580Z,16.10
2018-06-05T05:35:02.160Z,16.10
2018-06-05T05:37:31.485Z,16.10
2018-06-05T05:40:00.066Z,16.20
2018-06-05T05:42:29.297Z,16.20
2018-06-05T05:44:57.857Z,16.20
2018-06-05T05:47:26.500Z,16.20
2018-06-05T05:49:55.076Z,16.20
2018-06-05T05:52:23.817Z,16.20
2018-06-05T05:54:52.466Z,16.30
2018-06-05T05:57:21.644Z,16.30
2018-06-05T05:59:51.001Z,16.40
2018-06-05T06:02:19.623Z,16.30
2018-06-05T06:04:48.275Z,16.30
2018-06-05T06:07:18.115Z,16.30
2018-06-05T06:09:50.773Z,16.40
2018-06-05T06:12:20.555Z,16.40
2018-06-05T06:14:49.230Z,16.40
2018-06-05T06:17:17.829Z,16.50
2018-06-05T06:19:46.376Z,16.50
2018-06-05T06:22:15.002Z,16.60
2018-06-05T06:24:43.603Z,16.70
2018-06-05T06:27:12.218Z,16.80
2018-06-05T06:29:40.746Z,16.80
2018-06-05T06:32:09.316Z,16.90
2018-06-05T06:34:37.927Z,17.00
2018-06-05T06:37:06.638Z,17.20
2018-06-05T06:39:35.948Z,17.20
2018-06-05T06:42:04.504Z,17.10
2018-06-05T06:44:33.118Z,17.10
2018-06-05T06:47:01.692Z,17.00
2018-06-05T06:49:31.004Z,17.00
2018-06-05T06:51:59.557Z,16.90
2018-06-05T06:54:28.280Z,16.90
2018-06-05T06:56:56.873Z,16.90
2018-06-05T06:59:25.520Z,16.90
2018-06-05T07:01:54.108Z,17.00
2018-06-05T07:04:22.765Z,17.20
2018-06-05T07:06:51.935Z,17.20
2018-06-05T07:09:20.554Z,17.20
2018-06-05T07:11:49.178Z,17.30
2018-06-05T07:14:17.861Z,17.40
2018-06-05T07:16:46.396Z,17.40
2018-06-05T07:19:16.784Z,17.40
2018-06-05T07:21:45.330Z,17.50
2018-06-05T07:24:13.852Z,17.40
2018-06-05T07:26:42.424Z,17.50
2018-06-05T07:29:11.087Z,17.50
2018-06-05T07:31:39.694Z,17.60
2018-06-05T07:34:09.114Z,17.60
2018-06-05T07:36:37.677Z,17.70
2018-06-05T07:39:08.376Z,17.70
2018-06-05T07:41:36.991Z,17.80
2018-06-05T07:44:05.636Z,17.70
2018-06-05T07:46:34.268Z,17.70
2018-06-05T07:49:03.469Z,17.70
2018-06-05T07:51:32.102Z,17.80
2018-06-05T07:54:01.517Z,17.80
2018-06-05T07:56:30.191Z,17.90
2018-06-05T07:58:58.908Z,18.10
2018-06-05T08:01:27.524Z,18.20
2018-06-05T08:03:56.159Z,18.20
2018-06-05T08:06:25.596Z,18.40
2018-06-05T08:08:54.235Z,18.50
2018-06-05T08:11:23.089Z,18.60
2018-06-05T08:13:51.870Z,18.60
2018-06-05T08:16:20.534Z,18.60
2018-06-05T08:18:49.116Z,18.60
2018-06-05T08:21:17.723Z,18.60
2018-06-05T08:23:46.928Z,18.70
2018-06-05T08:26:15.934Z,18.80
2018-06-05T08:28:44.549Z,18.80
2018-06-05T08:31:13.203Z,18.80
2018-06-05T08:33:41.938Z,18.80
2018-06-05T08:36:11.148Z,18.90
2018-06-05T08:38:39.712Z,18.90
2018-06-05T08:41:09.017Z,19.00
2018-06-05T08:43:37.570Z,19.10
2018-06-05T08:46:06.245Z,19.10
2018-06-05T08:48:34.794Z,19.10
2018-06-05T08:51:03.393Z,19.00
2018-06-05T08:53:31.965Z,18.90
2018-06-05T08:56:00.535Z,19.00
2018-06-05T08:58:29.801Z,18.90
2018-06-05T09:00:58.534Z,18.80
2018-06-05T09:03:27.120Z,18.60
2018-06-05T09:05:55.720Z,18.70
2018-06-05T09:08:24.267Z,18.80
2018-06-05T09:10:52.988Z,18.80
2018-06-05T09:13:21.590Z,18.80
2018-06-05T09:15:50.861Z,18.80
2018-06-05T09:18:19.511Z,18.70
2018-06-05T09:20:48.047Z,18.70
2018-06-05T09:23:16.595Z,18.70
2018-06-05T09:25:45.122Z,18.60
2018-06-05T09:28:13.791Z,18.70
2018-06-05T09:30:42.367Z,18.90
2018-06-05T09:33:10.836Z,18.90
2018-06-05T09:35:39.356Z,19.00
2018-06-05T09:38:07.841Z,19.30
2018-06-05T09:40:36.338Z,19.40
2018-06-05T09:43:04.841Z,19.50
2018-06-05T09:45:33.380Z,19.50
2018-06-05T09:52:58.316Z,19.70
2018-06-05T09:55:26.837Z,19.70
2018-06-05T09:57:55.417Z,19.80
2018-06-05T10:00:29.196Z,19.80
2018-06-05T10:02:57.882Z,19.90
2018-06-05T10:05:26.563Z,19.90
2018-06-05T10:07:55.106Z,20.10
2018-06-05T10:10:23.616Z,20.20
2018-06-05T10:12:52.150Z,20.20
2018-06-05T10:15:21.312Z,20.50
2018-06-05T10:17:50.472Z,20.60
2018-06-05T10:20:18.953Z,20.50
2018-06-05T10:22:47.457Z,20.80
2018-06-05T10:25:16.059Z,21.00
2018-06-05T10:27:44.601Z,21.00
2018-06-05T10:30:13.098Z,21.00
2018-06-05T10:32:41.654Z,20.90
2018-06-05T10:35:10.266Z,21.00
2018-06-05T10:37:38.853Z,20.90
2018-06-05T10:40:07.463Z,20.90
2018-06-05T10:42:35.924Z,20.90
2018-06-05T10:45:04.701Z,21.00
2018-06-05T10:47:33.198Z,21.20
2018-06-05T10:52:30.038Z,21.30
2018-06-05T10:54:58.579Z,21.50
2018-06-05T10:57:27.871Z,21.50
2018-06-05T10:59:56.446Z,21.60
2018-06-05T11:02:24.961Z,21.60
2018-06-05T11:04:53.452Z,21.60
2018-06-05T11:07:22.048Z,21.60
2018-06-05T11:09:50.625Z,21.70
2018-06-05T11:12:19.188Z,21.80
2018-06-05T11:14:47.677Z,22.10
2018-06-05T11:17:16.791Z,22.10
2018-06-05T11:19:45.329Z,22.10
2018-06-05T11:22:14.024Z,22.20
2018-06-05T11:24:42.505Z,22.00
2018-06-05T11:27:11.150Z,22.10
2018-06-05T11:29:39.806Z,22.10
2018-06-05T11:32:08.893Z,21.90
2018-06-05T11:34:37.377Z,22.00
2018-06-05T11:37:06.010Z,22.20
2018-06-05T11:39:35.514Z,22.20
2018-06-05T11:42:04.142Z,22.30
2018-06-05T11:44:32.664Z,22.50
2018-06-05T11:47:01.849Z,22.60
2018-06-05T11:49:30.421Z,22.70
2018-06-05T11:51:58.978Z,22.70
2018-06-05T11:54:27.674Z,22.60
2018-06-05T11:56:56.372Z,22.50
2018-06-05T11:59:25.486Z,22.60
2018-06-05T12:01:54.237Z,22.70
2018-06-05T12:04:22.792Z,22.80
2018-06-05T12:06:51.367Z,22.80
2018-06-05T12:09:19.843Z,22.90
2018-06-05T12:11:48.424Z,22.60
2018-06-05T12:14:16.949Z,22.50
2018-06-05T12:16:45.463Z,22.60
2018-06-05T12:19:13.990Z,22.30
2018-06-05T12:21:46.094Z,22.20
2018-06-05T12:24:15.210Z,22.20
2018-06-05T12:26:43.700Z,22.20
2018-06-05T12:29:12.277Z,22.30
2018-06-05T12:31:40.744Z,22.40
2018-06-05T12:34:09.294Z,22.40
2018-06-05T12:36:37.845Z,22.20
2018-06-05T12:39:08.408Z,22.10
2018-06-05T12:41:36.887Z,21.90
2018-06-05T12:44:05.414Z,21.80
2018-06-05T12:46:33.911Z,21.80
2018-06-05T12:49:02.480Z,21.70
2018-06-05T12:51:31.011Z,21.60
2018-06-05T12:53:59.604Z,21.70
2018-06-05T12:56:28.085Z,21.70
2018-06-05T12:58:56.739Z,21.90
2018-06-05T13:01:25.221Z,22.00
2018-06-05T13:03:53.789Z,22.20
2018-06-05T13:06:22.803Z,22.30
2018-06-05T13:08:51.305Z,22.30
2018-06-05T13:11:19.840Z,22.30
2018-06-05T13:13:48.354Z,22.30
2018-06-05T13:16:16.852Z,22.20
2018-06-05T13:18:45.360Z,22.20
2018-06-05T13:21:13.944Z,22.00
2018-06-05T13:23:42.462Z,22.10
2018-06-05T13:26:10.970Z,22.30
2018-06-05T13:28:39.576Z,22.50
2018-06-05T13:31:08.075Z,22.60
2018-06-05T13:33:36.743Z,22.90
2018-06-05T13:36:05.290Z,23.10
2018-06-05T13:38:33.834Z,23.10
2018-06-05T13:41:02.449Z,23.20
2018-06-05T13:43:31.029Z,23.30
2018-06-05T13:45:59.577Z,23.50
2018-06-05T13:48:28.292Z,23.70
2018-06-05T13:50:57.005Z,23.70
2018-06-05T13:53:25.602Z,23.70
2018-06-05T13:55:54.142Z,23.70
2018-06-05T13:58:22.808Z,23.80
2018-06-05T14:00:51.472Z,23.80
2018-06-05T14:03:20.817Z,23.90
2018-06-05T14:05:50.156Z,23.90
2018-06-05T14:08:18.802Z,23.70
2018-06-05T14:10:47.393Z,23.60
2018-06-05T14:13:16.555Z,23.60
2018-06-05T14:15:45.267Z,23.40
2018-06-05T14:18:13.859Z,23.50
2018-06-05T14:20:42.646Z,23.40
2018-06-05T14:23:11.223Z,23.50
2018-06-05T14:25:39.874Z,23.40
2018-06-05T14:28:08.432Z,23.10
2018-06-05T14:30:36.954Z,23.00
2018-06-05T14:33:05.547Z,22.70
2018-06-05T14:35:34.218Z,22.60
2018-06-05T14:38:02.770Z,22.70
2018-06-05T14:40:31.433Z,22.70
2018-06-05T14:43:00.079Z,22.90
2018-06-05T14:45:28.834Z,23.00
2018-06-05T14:47:57.432Z,23.10
2018-06-05T14:50:28.995Z,23.10
2018-06-05T14:52:57.767Z,23.00
2018-06-05T14:55:26.399Z,22.90
2018-06-05T14:57:55.116Z,22.70
2018-06-05T15:00:23.730Z,22.50
2018-06-05T15:02:52.544Z,22.50
2018-06-05T15:05:21.783Z,22.50
2018-06-05T15:07:51.198Z,22.50
2018-06-05T15:10:19.835Z,22.60
2018-06-05T15:12:48.497Z,22.70
2018-06-05T15:15:17.139Z,22.90
2018-06-05T15:17:45.723Z,23.10
2018-06-05T15:20:14.362Z,23.20
2018-06-05T15:22:42.943Z,23.20
2018-06-05T15:25:11.615Z,23.30
2018-06-05T15:27:40.927Z,23.50
2018-06-05T15:30:09.604Z,23.60
2018-06-05T15:32:38.317Z,23.60
2018-06-05T15:35:08.040Z,23.40
2018-06-05T15:37:36.718Z,23.30
2018-06-05T15:40:05.511Z,23.30
2018-06-05T15:42:34.128Z,23.20
2018-06-05T15:45:02.941Z,23.20
2018-06-05T15:47:31.879Z,23.20
2018-06-05T15:50:00.478Z,23.30
2018-06-05T15:52:32.094Z,23.50
2018-06-05T15:55:00.724Z,23.60
2018-06-05T15:57:29.307Z,23.70
2018-06-05T15:59:58.540Z,23.80
2018-06-05T16:02:27.217Z,23.90
2018-06-05T16:04:55.869Z,23.90
2018-06-05T16:07:24.527Z,24.00
2018-06-05T16:09:53.164Z,23.90
2018-06-05T16:12:21.736Z,23.90
2018-06-05T16:14:50.364Z,24.00
2018-06-05T16:17:18.920Z,23.90
2018-06-05T16:19:47.481Z,24.00
2018-06-05T16:22:16.837Z,24.10
2018-06-05T16:24:45.420Z,24.10
2018-06-05T16:27:14.006Z,24.10
2018-06-05T16:29:42.581Z,24.20
2018-06-05T16:32:11.175Z,24.20
2018-06-05T16:34:40.451Z,24.20
2018-06-05T16:37:09.104Z,24.30
2018-06-05T16:39:37.785Z,24.40
2018-06-05T16:42:06.424Z,24.50
2018-06-05T16:44:34.969Z,24.50
2018-06-05T16:47:03.676Z,24.70
2018-06-05T16:49:32.253Z,24.90
2018-06-05T16:52:00.852Z,25.00
2018-06-05T16:54:29.437Z,25.20
2018-06-05T16:56:58.118Z,25.30
2018-06-05T16:59:27.522Z,25.60
2018-06-05T17:01:56.061Z,26.30
2018-06-05T17:04:24.633Z,27.10
2018-06-05T17:06:53.218Z,27.80
2018-06-05T17:09:21.797Z,28.50
2018-06-05T17:11:50.390Z,29.20
2018-06-05T17:14:18.953Z,30.20
2018-06-05T17:16:47.478Z,31.00
2018-06-05T17:19:16.025Z,31.30
2018-06-05T17:21:44.707Z,31.90
2018-06-05T17:24:13.244Z,32.80
2018-06-05T17:26:41.794Z,33.40
2018-06-05T17:29:10.493Z,33.80
2018-06-05T17:31:39.073Z,34.50
2018-06-05T17:34:07.674Z,35.10
2018-06-05T17:36:36.202Z,35.50
2018-06-05T17:39:06.790Z,35.30
2018-06-05T17:41:35.325Z,35.40
2018-06-05T17:44:04.175Z,35.30
2018-06-05T17:46:33.461Z,35.10
2018-06-05T17:49:02.001Z,35.00
2018-06-05T17:51:30.560Z,34.60
2018-06-05T17:53:59.167Z,34.80
2018-06-05T17:56:27.708Z,34.30
2018-06-05T17:58:56.282Z,34.50
2018-06-05T18:01:24.865Z,34.90
2018-06-05T18:03:53.401Z,34.90
2018-06-05T18:06:21.948Z,34.70
2018-06-05T18:08:50.536Z,34.70
2018-06-05T18:11:19.082Z,34.40
2018-06-05T18:13:47.780Z,34.40
2018-06-05T18:18:44.602Z,33.60
2018-06-05T18:21:13.235Z,33.00
2018-06-05T18:23:42.572Z,33.00
2018-06-05T18:26:11.170Z,32.90
2018-06-05T18:28:39.744Z,32.80
2018-06-05T18:31:08.300Z,32.50
2018-06-05T18:33:36.958Z,32.20
2018-06-05T18:36:05.506Z,32.00
2018-06-05T18:38:34.130Z,31.90
2018-06-05T18:41:02.710Z,31.80
2018-06-05T18:43:31.246Z,31.70
2018-06-05T18:46:02.794Z,31.20
2018-06-05T18:48:31.336Z,30.80
2018-06-05T18:51:04.113Z,29.70
2018-06-05T18:53:32.740Z,28.20
2018-06-05T18:56:01.313Z,26.80
2018-06-05T18:58:29.831Z,25.60
2018-06-05T19:00:58.460Z,24.70
2018-06-05T19:03:27.008Z,23.90
2018-06-05T19:05:55.590Z,23.30
2018-06-05T19:08:24.135Z,22.70
2018-06-05T19:10:52.762Z,22.30
2018-06-05T19:13:21.342Z,21.90
2018-06-05T19:15:49.977Z,21.60
2018-06-05T19:18:18.568Z,21.30
2018-06-05T19:20:47.127Z,21.00
2018-06-05T19:23:15.757Z,20.70
2018-06-05T19:25:44.356Z,20.50
2018-06-05T19:28:13.136Z,20.30
2018-06-05T19:30:41.862Z,20.10
2018-06-05T19:33:10.516Z,19.90
2018-06-05T19:35:39.195Z,19.70
2018-06-05T19:38:14.336Z,19.50
2018-06-05T19:40:43.556Z,19.30
2018-06-05T19:43:12.302Z,19.10
2018-06-05T19:45:40.940Z,18.90
2018-06-05T19:48:09.613Z,18.70
2018-06-05T19:50:38.279Z,18.60
2018-06-05T19:53:07.002Z,18.40
2018-06-05T19:55:35.699Z,18.20
2018-06-05T19:58:05.082Z,18.10
2018-06-05T20:00:33.675Z,18.00
2018-06-05T20:03:02.309Z,17.80
2018-06-05T20:05:31.095Z,17.70
2018-06-05T20:07:59.783Z,17.60
2018-06-05T20:10:30.060Z,17.50
2018-06-05T20:12:58.743Z,17.40
2018-06-05T20:15:27.407Z,17.30
2018-06-05T20:17:56.056Z,17.20
2018-06-05T20:20:24.747Z,17.10
2018-06-05T20:22:53.391Z,17.00
2018-06-05T20:25:22.070Z,17.00
2018-06-05T20:27:50.772Z,16.90
2018-06-05T20:30:19.388Z,16.80
2018-06-05T20:32:47.988Z,16.70
2018-06-05T20:35:16.598Z,16.60
2018-06-05T20:37:45.267Z,16.60
2018-06-05T20:40:13.914Z,16.50
2018-06-05T20:42:42.551Z,16.40
2018-06-05T20:45:11.213Z,16.30
2018-06-05T20:47:40.018Z,16.30
2018-06-05T20:50:08.664Z,16.20
2018-06-05T20:52:37.283Z,16.10
2018-06-05T20:55:05.868Z,16.00
2018-06-05T20:57:34.531Z,15.90
2018-06-05T21:00:03.499Z,15.90
2018-06-05T21:02:32.283Z,15.80
2018-06-05T21:05:00.883Z,15.80
2018-06-05T21:07:29.520Z,15.70
2018-06-05T21:09:58.218Z,15.70
2018-06-05T21:12:26.853Z,15.60
2018-06-05T21:14:55.506Z,15.50
2018-06-05T21:17:24.040Z,15.50
2018-06-05T21:19:52.648Z,15.40
2018-06-05T21:22:21.254Z,15.40
2018-06-05T21:24:49.868Z,15.30
2018-06-05T21:27:18.479Z,15.30
2018-06-05T21:29:47.205Z,15.20
2018-06-05T21:32:15.788Z,15.20
2018-06-05T21:34:44.574Z,15.10
2018-06-05T21:37:14.461Z,15.10
2018-06-05T21:39:44.147Z,15.00
2018-06-05T21:42:12.854Z,14.90
2018-06-05T21:44:41.536Z,14.90
2018-06-05T21:47:10.179Z,14.90
2018-06-05T21:49:38.964Z,14.80
2018-06-05T21:52:08.823Z,14.80
2018-06-05T21:54:38.171Z,14.80
2018-06-05T21:57:06.855Z,14.80
2018-06-05T21:59:35.544Z,14.70
2018-06-05T22:02:04.253Z,14.70
2018-06-05T22:04:32.906Z,14.70
2018-06-05T22:07:01.655Z,14.60
2018-06-05T22:09:30.300Z,14.60
2018-06-05T22:11:59.003Z,14.60
2018-06-05T22:14:27.669Z,14.60
2018-06-05T22:16:56.253Z,14.50
2018-06-05T22:19:24.903Z,14.50
2018-06-05T22:21:53.548Z,14.50
2018-06-05T22:24:22.316Z,14.40
2018-06-05T22:26:51.555Z,14.40
2018-06-05T22:29:20.214Z,14.40
2018-06-05T22:31:48.812Z,14.30
2018-06-05T22:34:17.497Z,14.30
2018-06-05T22:36:46.144Z,14.20
2018-06-05T22:39:14.864Z,14.20
2018-06-05T22:41:44.224Z,14.20
2018-06-05T22:44:12.876Z,14.10
2018-06-05T22:46:41.605Z,14.10
2018-06-05T22:49:10.335Z,14.00
2018-06-05T22:51:38.975Z,14.00
2018-06-05T22:54:07.679Z,14.00
2018-06-05T22:56:37.165Z,14.00
2018-06-05T22:59:05.836Z,13.90
2018-06-05T23:01:34.670Z,13.90
2018-06-05T23:04:03.311Z,13.80
2018-06-05T23:06:31.973Z,13.80
2018-06-05T23:09:00.616Z,13.90
2018-06-05T23:11:29.250Z,13.90
2018-06-05T23:13:57.879Z,13.80
2018-06-05T23:16:26.590Z,13.80
2018-06-05T23:18:55.272Z,13.70
2018-06-05T23:21:24.065Z,13.70
2018-06-05T23:23:52.709Z,13.70
2018-06-05T23:26:21.345Z,13.70
2018-06-05T23:28:49.975Z,13.70
2018-06-05T23:31:18.592Z,13.70
2018-06-05T23:33:47.285Z,13.60
2018-06-05T23:36:15.849Z,13.60
2018-06-05T23:38:44.465Z,13.60
2018-06-05T23:41:13.072Z,13.60
2018-06-05T23:43:41.709Z,13.60
2018-06-05T23:46:10.306Z,13.50
2018-06-05T23:48:38.994Z,13.50
2018-06-05T23:51:07.577Z,13.50
2018-06-05T23:53:36.965Z,13.40
2018-06-05T23:56:05.592Z,13.40
2018-06-05T23:58:34.927Z,13.40
